Terminal Aerodrome Forecast
Issued by NWS

Home | Current Version | Previous Version | Text Only | Print | Product List | Glossary On
Versions: 1 2 3 4 5 6 7 8 9 10 11 12 13 14 15 16 17 18 19 20 21 22 23 24 25 26 27 28 29 30
000
FTUS44 KMOB 221700 RRA
TAFBFM
TAF
KBFM 221749Z 2218/2318 08008KT P6SM VCTS SCT025CB BKN050 OVC250
      TEMPO 2219/2221 VRB15G25KT 1SM TSRA BR BKN025CB OVC035
     FM222100 17008KT P6SM VCTS SCT025CB BKN050 OVC250
      TEMPO 2221/2224 3SM -TSRA BR BKN025CB OVC035
     FM230100 VRB03KT P6SM SCT030 SCT250
     FM231500 13006KT P6SM SCT030 SCT250 PROB30 2315/2318 P6SM TS
      BKN030CB=

USA.gov is the U.S. government's official web portal to all federal, state and local government web resources and services.